sensor_id;sensor_type;location;lat;lon;timestamp;P1;durP1;ratioP1;P2;durP2;ratioP2
6282;SDS011;3174;53.486;9.568;2023-06-22T00:00:34;1.83;;;1.70;;
6282;SDS011;3174;53.486;9.568;2023-06-22T00:03:03;1.70;;;1.50;;
6282;SDS011;3174;53.486;9.568;2023-06-22T00:05:31;2.47;;;1.70;;
6282;SDS011;3174;53.486;9.568;2023-06-22T00:08:01;3.27;;;2.00;;
6282;SDS011;3174;53.486;9.568;2023-06-22T00:10:30;2.37;;;2.17;;
6282;SDS011;3174;53.486;9.568;2023-06-22T00:12:58;3.67;;;2.43;;
6282;SDS011;3174;53.486;9.568;2023-06-22T00:15:28;3.43;;;2.00;;
6282;SDS011;3174;53.486;9.568;2023-06-22T00:17:56;2.13;;;1.90;;
6282;SDS011;3174;53.486;9.568;2023-06-22T00:20:25;3.50;;;2.63;;
6282;SDS011;3174;53.486;9.568;2023-06-22T00:22:56;3.63;;;2.73;;
6282;SDS011;3174;53.486;9.568;2023-06-22T00:25:25;2.00;;;1.80;;
6282;SDS011;3174;53.486;9.568;2023-06-22T00:27:53;2.43;;;1.90;;
6282;SDS011;3174;53.486;9.568;2023-06-22T00:30:21;2.33;;;1.90;;
6282;SDS011;3174;53.486;9.568;2023-06-22T00:32:50;2.33;;;1.93;;
6282;SDS011;3174;53.486;9.568;2023-06-22T00:35:18;2.50;;;2.30;;
6282;SDS011;3174;53.486;9.568;2023-06-22T00:37:47;2.10;;;1.90;;
6282;SDS011;3174;53.486;9.568;2023-06-22T00:40:14;3.13;;;1.70;;
6282;SDS011;3174;53.486;9.568;2023-06-22T00:42:48;2.00;;;1.80;;
6282;SDS011;3174;53.486;9.568;2023-06-22T00:45:16;4.60;;;2.50;;
6282;SDS011;3174;53.486;9.568;2023-06-22T00:47:44;3.83;;;2.60;;
6282;SDS011;3174;53.486;9.568;2023-06-22T00:50:14;2.13;;;1.80;;
6282;SDS011;3174;53.486;9.568;2023-06-22T00:52:44;5.73;;;2.77;;
6282;SDS011;3174;53.486;9.568;2023-06-22T00:55:12;4.47;;;2.07;;
6282;SDS011;3174;53.486;9.568;2023-06-22T00:57:44;4.03;;;2.53;;
6282;SDS011;3174;53.486;9.568;2023-06-22T01:00:13;3.23;;;2.73;;
6282;SDS011;3174;53.486;9.568;2023-06-22T01:02:43;3.77;;;1.90;;
6282;SDS011;3174;53.486;9.568;2023-06-22T01:05:14;2.77;;;1.83;;
6282;SDS011;3174;53.486;9.568;2023-06-22T01:07:44;3.33;;;2.20;;
6282;SDS011;3174;53.486;9.568;2023-06-22T01:10:24;2.40;;;2.03;;
6282;SDS011;3174;53.486;9.568;2023-06-22T01:12:58;3.40;;;1.70;;
6282;SDS011;3174;53.486;9.568;2023-06-22T01:15:31;2.10;;;1.90;;
6282;SDS011;3174;53.486;9.568;2023-06-22T01:18:01;2.60;;;2.00;;
6282;SDS011;3174;53.486;9.568;2023-06-22T01:20:33;1.93;;;1.73;;
6282;SDS011;3174;53.486;9.568;2023-06-22T01:23:05;1.93;;;1.73;;
6282;SDS011;3174;53.486;9.568;2023-06-22T01:25:36;2.17;;;1.90;;
6282;SDS011;3174;53.486;9.568;2023-06-22T01:28:17;2.00;;;1.60;;
6282;SDS011;3174;53.486;9.568;2023-06-22T01:30:52;2.20;;;2.00;;
6282;SDS011;3174;53.486;9.568;2023-06-22T01:33:30;2.70;;;1.97;;
6282;SDS011;3174;53.486;9.568;2023-06-22T01:36:01;4.17;;;2.07;;
6282;SDS011;3174;53.486;9.568;2023-06-22T01:38:29;2.90;;;1.60;;
6282;SDS011;3174;53.486;9.568;2023-06-22T01:40:58;1.80;;;1.63;;
6282;SDS011;3174;53.486;9.568;2023-06-22T01:43:27;2.50;;;2.00;;
6282;SDS011;3174;53.486;9.568;2023-06-22T01:45:57;2.43;;;1.80;;
6282;SDS011;3174;53.486;9.568;2023-06-22T01:48:26;3.43;;;2.20;;
6282;SDS011;3174;53.486;9.568;2023-06-22T01:50:54;2.30;;;1.97;;
6282;SDS011;3174;53.486;9.568;2023-06-22T01:53:22;2.17;;;1.80;;
6282;SDS011;3174;53.486;9.568;2023-06-22T01:55:51;3.13;;;2.17;;
6282;SDS011;3174;53.486;9.568;2023-06-22T01:58:20;2.33;;;2.13;;
6282;SDS011;3174;53.486;9.568;2023-06-22T02:00:50;3.67;;;1.97;;
6282;SDS011;3174;53.486;9.568;2023-06-22T02:03:23;2.77;;;2.00;;
6282;SDS011;3174;53.486;9.568;2023-06-22T02:05:55;2.40;;;1.80;;
6282;SDS011;3174;53.486;9.568;2023-06-22T02:08:28;2.20;;;1.90;;
6282;SDS011;3174;53.486;9.568;2023-06-22T02:10:57;3.77;;;1.80;;
6282;SDS011;3174;53.486;9.568;2023-06-22T02:13:25;2.13;;;1.83;;
6282;SDS011;3174;53.486;9.568;2023-06-22T02:15:54;2.67;;;1.97;;
6282;SDS011;3174;53.486;9.568;2023-06-22T02:18:23;2.40;;;2.07;;
6282;SDS011;3174;53.486;9.568;2023-06-22T02:20:51;2.47;;;2.00;;
6282;SDS011;3174;53.486;9.568;2023-06-22T02:23:19;2.77;;;1.80;;
6282;SDS011;3174;53.486;9.568;2023-06-22T02:25:48;2.27;;;1.90;;
6282;SDS011;3174;53.486;9.568;2023-06-22T02:28:16;2.20;;;2.00;;
6282;SDS011;3174;53.486;9.568;2023-06-22T02:30:44;3.03;;;1.97;;
6282;SDS011;3174;53.486;9.568;2023-06-22T02:33:12;3.93;;;2.13;;
6282;SDS011;3174;53.486;9.568;2023-06-22T02:35:41;3.03;;;2.10;;
6282;SDS011;3174;53.486;9.568;2023-06-22T02:38:14;2.83;;;2.10;;
6282;SDS011;3174;53.486;9.568;2023-06-22T02:40:44;3.80;;;2.17;;
6282;SDS011;3174;53.486;9.568;2023-06-22T02:43:13;3.00;;;2.10;;
6282;SDS011;3174;53.486;9.568;2023-06-22T02:45:41;3.33;;;2.20;;
6282;SDS011;3174;53.486;9.568;2023-06-22T02:48:09;2.73;;;2.20;;
6282;SDS011;3174;53.486;9.568;2023-06-22T02:50:37;2.50;;;2.10;;
6282;SDS011;3174;53.486;9.568;2023-06-22T02:53:07;2.97;;;1.93;;
6282;SDS011;3174;53.486;9.568;2023-06-22T02:55:35;2.30;;;2.10;;
6282;SDS011;3174;53.486;9.568;2023-06-22T02:58:03;4.50;;;2.00;;
6282;SDS011;3174;53.486;9.568;2023-06-22T03:00:31;2.70;;;2.00;;
6282;SDS011;3174;53.486;9.568;2023-06-22T03:02:59;3.13;;;2.10;;
6282;SDS011;3174;53.486;9.568;2023-06-22T03:05:27;3.23;;;2.10;;
6282;SDS011;3174;53.486;9.568;2023-06-22T03:07:55;3.57;;;2.07;;
6282;SDS011;3174;53.486;9.568;2023-06-22T03:10:25;3.20;;;2.00;;
6282;SDS011;3174;53.486;9.568;2023-06-22T03:12:54;2.47;;;2.10;;
6282;SDS011;3174;53.486;9.568;2023-06-22T03:15:22;3.13;;;2.00;;
6282;SDS011;3174;53.486;9.568;2023-06-22T03:17:51;4.27;;;2.30;;
6282;SDS011;3174;53.486;9.568;2023-06-22T03:20:20;2.70;;;2.07;;
6282;SDS011;3174;53.486;9.568;2023-06-22T03:22:48;2.43;;;1.70;;
6282;SDS011;3174;53.486;9.568;2023-06-22T03:25:16;2.53;;;2.10;;
6282;SDS011;3174;53.486;9.568;2023-06-22T03:27:45;4.33;;;2.27;;
6282;SDS011;3174;53.486;9.568;2023-06-22T03:30:14;4.53;;;2.07;;
6282;SDS011;3174;53.486;9.568;2023-06-22T03:32:42;2.57;;;2.17;;
6282;SDS011;3174;53.486;9.568;2023-06-22T03:35:10;2.43;;;2.03;;
6282;SDS011;3174;53.486;9.568;2023-06-22T03:37:40;2.57;;;2.20;;
6282;SDS011;3174;53.486;9.568;2023-06-22T03:40:08;2.37;;;1.80;;
6282;SDS011;3174;53.486;9.568;2023-06-22T03:42:37;2.20;;;1.90;;
6282;SDS011;3174;53.486;9.568;2023-06-22T03:45:07;2.63;;;1.90;;
6282;SDS011;3174;53.486;9.568;2023-06-22T03:47:35;2.37;;;1.80;;
6282;SDS011;3174;53.486;9.568;2023-06-22T03:50:04;2.13;;;1.93;;
6282;SDS011;3174;53.486;9.568;2023-06-22T03:52:32;2.50;;;1.90;;
6282;SDS011;3174;53.486;9.568;2023-06-22T03:55:00;2.27;;;1.80;;
6282;SDS011;3174;53.486;9.568;2023-06-22T03:57:29;2.30;;;2.10;;
6282;SDS011;3174;53.486;9.568;2023-06-22T03:59:57;2.57;;;2.37;;
6282;SDS011;3174;53.486;9.568;2023-06-22T04:02:26;2.33;;;1.73;;
6282;SDS011;3174;53.486;9.568;2023-06-22T04:04:54;3.17;;;2.00;;
6282;SDS011;3174;53.486;9.568;2023-06-22T04:07:22;2.43;;;1.80;;
6282;SDS011;3174;53.486;9.568;2023-06-22T04:09:50;2.90;;;2.27;;
6282;SDS011;3174;53.486;9.568;2023-06-22T04:12:18;3.47;;;2.70;;
6282;SDS011;3174;53.486;9.568;2023-06-22T04:14:46;2.20;;;1.90;;
6282;SDS011;3174;53.486;9.568;2023-06-22T04:17:14;4.03;;;2.00;;
6282;SDS011;3174;53.486;9.568;2023-06-22T04:19:45;2.37;;;2.10;;
6282;SDS011;3174;53.486;9.568;2023-06-22T04:22:13;4.23;;;3.10;;
6282;SDS011;3174;53.486;9.568;2023-06-22T04:24:41;3.20;;;2.30;;
6282;SDS011;3174;53.486;9.568;2023-06-22T04:27:09;2.10;;;1.90;;
6282;SDS011;3174;53.486;9.568;2023-06-22T04:29:37;2.20;;;1.97;;
6282;SDS011;3174;53.486;9.568;2023-06-22T04:32:15;3.50;;;2.13;;
6282;SDS011;3174;53.486;9.568;2023-06-22T04:34:43;4.87;;;2.73;;
6282;SDS011;3174;53.486;9.568;2023-06-22T04:37:12;5.80;;;3.27;;
6282;SDS011;3174;53.486;9.568;2023-06-22T04:39:42;6.13;;;3.63;;
6282;SDS011;3174;53.486;9.568;2023-06-22T04:42:11;4.20;;;3.13;;
6282;SDS011;3174;53.486;9.568;2023-06-22T04:44:39;3.10;;;2.03;;
6282;SDS011;3174;53.486;9.568;2023-06-22T04:47:08;2.33;;;2.13;;
6282;SDS011;3174;53.486;9.568;2023-06-22T04:49:36;2.20;;;2.00;;
6282;SDS011;3174;53.486;9.568;2023-06-22T04:52:07;3.27;;;2.20;;
6282;SDS011;3174;53.486;9.568;2023-06-22T04:54:37;4.80;;;2.60;;
6282;SDS011;3174;53.486;9.568;2023-06-22T04:57:07;2.93;;;2.30;;
6282;SDS011;3174;53.486;9.568;2023-06-22T04:59:37;2.40;;;2.00;;
6282;SDS011;3174;53.486;9.568;2023-06-22T05:02:08;2.30;;;2.03;;
6282;SDS011;3174;53.486;9.568;2023-06-22T05:04:36;3.57;;;2.30;;
6282;SDS011;3174;53.486;9.568;2023-06-22T05:07:07;2.50;;;2.03;;
6282;SDS011;3174;53.486;9.568;2023-06-22T05:09:37;2.83;;;2.27;;
6282;SDS011;3174;53.486;9.568;2023-06-22T05:12:06;4.30;;;2.40;;
6282;SDS011;3174;53.486;9.568;2023-06-22T05:14:36;10.33;;;5.80;;
6282;SDS011;3174;53.486;9.568;2023-06-22T05:17:04;3.63;;;2.40;;
6282;SDS011;3174;53.486;9.568;2023-06-22T05:19:41;2.97;;;2.10;;
6282;SDS011;3174;53.486;9.568;2023-06-22T05:22:14;3.90;;;2.37;;
6282;SDS011;3174;53.486;9.568;2023-06-22T05:24:43;4.63;;;2.53;;
6282;SDS011;3174;53.486;9.568;2023-06-22T05:27:12;3.83;;;2.60;;
6282;SDS011;3174;53.486;9.568;2023-06-22T05:29:40;9.50;;;6.33;;
6282;SDS011;3174;53.486;9.568;2023-06-22T05:32:09;4.23;;;3.17;;
6282;SDS011;3174;53.486;9.568;2023-06-22T05:34:37;3.17;;;2.50;;
6282;SDS011;3174;53.486;9.568;2023-06-22T05:37:05;3.33;;;2.40;;
6282;SDS011;3174;53.486;9.568;2023-06-22T05:39:36;7.47;;;4.93;;
6282;SDS011;3174;53.486;9.568;2023-06-22T05:42:06;3.63;;;2.60;;
6282;SDS011;3174;53.486;9.568;2023-06-22T05:44:36;3.90;;;2.60;;
6282;SDS011;3174;53.486;9.568;2023-06-22T05:47:06;4.40;;;2.87;;
6282;SDS011;3174;53.486;9.568;2023-06-22T05:49:34;5.10;;;2.80;;
6282;SDS011;3174;53.486;9.568;2023-06-22T05:52:02;10.57;;;5.83;;
6282;SDS011;3174;53.486;9.568;2023-06-22T05:54:31;3.47;;;2.70;;
6282;SDS011;3174;53.486;9.568;2023-06-22T05:56:59;4.07;;;2.50;;
6282;SDS011;3174;53.486;9.568;2023-06-22T05:59:28;3.33;;;2.30;;
6282;SDS011;3174;53.486;9.568;2023-06-22T06:01:56;3.20;;;2.63;;
6282;SDS011;3174;53.486;9.568;2023-06-22T06:04:25;7.13;;;4.80;;
6282;SDS011;3174;53.486;9.568;2023-06-22T06:06:53;3.40;;;2.50;;
6282;SDS011;3174;53.486;9.568;2023-06-22T06:09:21;3.87;;;3.07;;
6282;SDS011;3174;53.486;9.568;2023-06-22T06:11:49;3.30;;;2.30;;
6282;SDS011;3174;53.486;9.568;2023-06-22T06:14:17;3.00;;;2.40;;
6282;SDS011;3174;53.486;9.568;2023-06-22T06:16:47;2.73;;;2.23;;
6282;SDS011;3174;53.486;9.568;2023-06-22T06:19:15;4.77;;;2.80;;
6282;SDS011;3174;53.486;9.568;2023-06-22T06:21:43;8.37;;;4.77;;
6282;SDS011;3174;53.486;9.568;2023-06-22T06:24:12;4.20;;;2.83;;
6282;SDS011;3174;53.486;9.568;2023-06-22T06:26:40;3.23;;;2.40;;
6282;SDS011;3174;53.486;9.568;2023-06-22T06:29:09;4.00;;;2.80;;
6282;SDS011;3174;53.486;9.568;2023-06-22T06:31:37;4.70;;;2.30;;
6282;SDS011;3174;53.486;9.568;2023-06-22T06:34:06;9.07;;;5.07;;
6282;SDS011;3174;53.486;9.568;2023-06-22T06:36:34;3.77;;;2.27;;
6282;SDS011;3174;53.486;9.568;2023-06-22T06:39:03;8.47;;;2.93;;
6282;SDS011;3174;53.486;9.568;2023-06-22T06:41:31;4.83;;;2.87;;
6282;SDS011;3174;53.486;9.568;2023-06-22T06:43:59;4.73;;;3.00;;
6282;SDS011;3174;53.486;9.568;2023-06-22T06:46:27;6.07;;;4.30;;
6282;SDS011;3174;53.486;9.568;2023-06-22T06:48:56;5.97;;;3.17;;
6282;SDS011;3174;53.486;9.568;2023-06-22T06:51:25;3.35;;;2.90;;
6282;SDS011;3174;53.486;9.568;2023-06-22T06:53:53;9.27;;;4.93;;
6282;SDS011;3174;53.486;9.568;2023-06-22T06:56:21;7.10;;;4.90;;
6282;SDS011;3174;53.486;9.568;2023-06-22T06:58:49;6.73;;;4.80;;
6282;SDS011;3174;53.486;9.568;2023-06-22T07:01:17;5.20;;;3.20;;
6282;SDS011;3174;53.486;9.568;2023-06-22T07:03:48;4.93;;;3.13;;
6282;SDS011;3174;53.486;9.568;2023-06-22T07:06:16;4.25;;;2.63;;
6282;SDS011;3174;53.486;9.568;2023-06-22T07:08:45;5.70;;;3.70;;
6282;SDS011;3174;53.486;9.568;2023-06-22T07:11:13;4.00;;;2.10;;
6282;SDS011;3174;53.486;9.568;2023-06-22T07:13:41;3.67;;;2.53;;
6282;SDS011;3174;53.486;9.568;2023-06-22T07:16:09;5.68;;;3.22;;
6282;SDS011;3174;53.486;9.568;2023-06-22T07:18:39;3.50;;;2.83;;
6282;SDS011;3174;53.486;9.568;2023-06-22T07:21:07;3.47;;;2.72;;
6282;SDS011;3174;53.486;9.568;2023-06-22T07:23:35;3.55;;;2.55;;
6282;SDS011;3174;53.486;9.568;2023-06-22T07:26:05;5.15;;;3.33;;
6282;SDS011;3174;53.486;9.568;2023-06-22T07:28:34;4.80;;;3.30;;
6282;SDS011;3174;53.486;9.568;2023-06-22T07:31:04;6.35;;;4.32;;
6282;SDS011;3174;53.486;9.568;2023-06-22T07:33:32;4.28;;;2.75;;
6282;SDS011;3174;53.486;9.568;2023-06-22T07:36:00;4.50;;;3.05;;
6282;SDS011;3174;53.486;9.568;2023-06-22T07:38:29;4.85;;;3.60;;
6282;SDS011;3174;53.486;9.568;2023-06-22T07:40:57;5.05;;;2.83;;
6282;SDS011;3174;53.486;9.568;2023-06-22T07:43:26;5.25;;;3.70;;
6282;SDS011;3174;53.486;9.568;2023-06-22T07:45:56;6.95;;;3.40;;
6282;SDS011;3174;53.486;9.568;2023-06-22T07:48:24;3.83;;;2.70;;
6282;SDS011;3174;53.486;9.568;2023-06-22T07:50:52;4.03;;;2.58;;
6282;SDS011;3174;53.486;9.568;2023-06-22T07:53:20;4.95;;;2.63;;
6282;SDS011;3174;53.486;9.568;2023-06-22T07:55:49;5.10;;;3.20;;
6282;SDS011;3174;53.486;9.568;2023-06-22T07:58:17;5.97;;;3.38;;
6282;SDS011;3174;53.486;9.568;2023-06-22T08:00:48;3.92;;;2.70;;
6282;SDS011;3174;53.486;9.568;2023-06-22T08:03:16;4.75;;;2.90;;
6282;SDS011;3174;53.486;9.568;2023-06-22T08:05:44;4.68;;;2.80;;
6282;SDS011;3174;53.486;9.568;2023-06-22T08:08:12;3.63;;;2.72;;
6282;SDS011;3174;53.486;9.568;2023-06-22T08:10:41;2.53;;;2.33;;
6282;SDS011;3174;53.486;9.568;2023-06-22T08:13:09;5.18;;;2.80;;
6282;SDS011;3174;53.486;9.568;2023-06-22T08:15:37;3.55;;;2.58;;
6282;SDS011;3174;53.486;9.568;2023-06-22T08:18:06;7.20;;;4.00;;
6282;SDS011;3174;53.486;9.568;2023-06-22T08:20:35;3.28;;;2.30;;
6282;SDS011;3174;53.486;9.568;2023-06-22T08:23:03;5.28;;;3.22;;
6282;SDS011;3174;53.486;9.568;2023-06-22T08:25:32;4.07;;;2.45;;
6282;SDS011;3174;53.486;9.568;2023-06-22T08:28:01;3.72;;;2.85;;
6282;SDS011;3174;53.486;9.568;2023-06-22T08:30:29;3.88;;;2.45;;
6282;SDS011;3174;53.486;9.568;2023-06-22T08:32:57;5.55;;;3.05;;
6282;SDS011;3174;53.486;9.568;2023-06-22T08:35:26;5.07;;;2.90;;
6282;SDS011;3174;53.486;9.568;2023-06-22T08:37:56;5.90;;;3.50;;
6282;SDS011;3174;53.486;9.568;2023-06-22T08:40:24;4.32;;;2.65;;
6282;SDS011;3174;53.486;9.568;2023-06-22T08:42:53;2.72;;;2.50;;
6282;SDS011;3174;53.486;9.568;2023-06-22T08:45:21;3.92;;;2.97;;
6282;SDS011;3174;53.486;9.568;2023-06-22T08:47:49;3.83;;;2.30;;
6282;SDS011;3174;53.486;9.568;2023-06-22T08:50:17;4.45;;;2.45;;
6282;SDS011;3174;53.486;9.568;2023-06-22T08:52:46;3.50;;;2.10;;
6282;SDS011;3174;53.486;9.568;2023-06-22T08:55:14;3.88;;;2.35;;
6282;SDS011;3174;53.486;9.568;2023-06-22T08:57:42;3.45;;;2.55;;
6282;SDS011;3174;53.486;9.568;2023-06-22T09:00:11;2.45;;;2.10;;
6282;SDS011;3174;53.486;9.568;2023-06-22T09:02:46;4.45;;;2.75;;
6282;SDS011;3174;53.486;9.568;2023-06-22T09:05:15;6.70;;;2.30;;
6282;SDS011;3174;53.486;9.568;2023-06-22T09:07:44;2.95;;;2.17;;
6282;SDS011;3174;53.486;9.568;2023-06-22T09:10:14;4.05;;;2.72;;
6282;SDS011;3174;53.486;9.568;2023-06-22T09:12:42;3.10;;;2.25;;
6282;SDS011;3174;53.486;9.568;2023-06-22T09:15:10;3.72;;;2.50;;
6282;SDS011;3174;53.486;9.568;2023-06-22T09:17:43;3.38;;;2.22;;
6282;SDS011;3174;53.486;9.568;2023-06-22T09:20:13;3.20;;;2.22;;
6282;SDS011;3174;53.486;9.568;2023-06-22T09:22:42;2.78;;;1.95;;
6282;SDS011;3174;53.486;9.568;2023-06-22T09:25:10;4.10;;;1.95;;
6282;SDS011;3174;53.486;9.568;2023-06-22T09:27:40;3.95;;;2.10;;
6282;SDS011;3174;53.486;9.568;2023-06-22T09:30:08;4.22;;;2.40;;
6282;SDS011;3174;53.486;9.568;2023-06-22T09:32:36;4.18;;;2.35;;
6282;SDS011;3174;53.486;9.568;2023-06-22T09:35:05;7.18;;;2.30;;
6282;SDS011;3174;53.486;9.568;2023-06-22T09:37:34;3.47;;;2.20;;
6282;SDS011;3174;53.486;9.568;2023-06-22T09:40:03;17.05;;;4.40;;
6282;SDS011;3174;53.486;9.568;2023-06-22T09:42:35;3.42;;;2.20;;
6282;SDS011;3174;53.486;9.568;2023-06-22T09:45:05;2.95;;;2.13;;
6282;SDS011;3174;53.486;9.568;2023-06-22T09:47:33;3.85;;;2.30;;
6282;SDS011;3174;53.486;9.568;2023-06-22T09:50:01;2.70;;;2.47;;
6282;SDS011;3174;53.486;9.568;2023-06-22T09:52:29;3.67;;;2.50;;
6282;SDS011;3174;53.486;9.568;2023-06-22T09:55:12;3.30;;;2.00;;
6282;SDS011;3174;53.486;9.568;2023-06-22T09:57:41;2.70;;;2.05;;
6282;SDS011;3174;53.486;9.568;2023-06-22T10:00:12;4.47;;;2.40;;
6282;SDS011;3174;53.486;9.568;2023-06-22T10:02:41;4.53;;;2.50;;
6282;SDS011;3174;53.486;9.568;2023-06-22T10:05:10;4.80;;;2.42;;
6282;SDS011;3174;53.486;9.568;2023-06-22T10:07:39;2.30;;;2.10;;
6282;SDS011;3174;53.486;9.568;2023-06-22T10:10:10;3.22;;;2.42;;
6282;SDS011;3174;53.486;9.568;2023-06-22T10:12:41;3.15;;;2.17;;
6282;SDS011;3174;53.486;9.568;2023-06-22T10:15:10;4.65;;;2.40;;
6282;SDS011;3174;53.486;9.568;2023-06-22T10:17:40;3.70;;;2.40;;
6282;SDS011;3174;53.486;9.568;2023-06-22T10:20:08;3.75;;;1.95;;
6282;SDS011;3174;53.486;9.568;2023-06-22T10:22:41;4.50;;;2.30;;
6282;SDS011;3174;53.486;9.568;2023-06-22T10:25:09;3.20;;;2.33;;
6282;SDS011;3174;53.486;9.568;2023-06-22T10:27:38;3.67;;;2.85;;
6282;SDS011;3174;53.486;9.568;2023-06-22T10:30:07;3.97;;;2.15;;
6282;SDS011;3174;53.486;9.568;2023-06-22T10:32:38;4.32;;;2.22;;
6282;SDS011;3174;53.486;9.568;2023-06-22T10:35:07;3.65;;;2.03;;
6282;SDS011;3174;53.486;9.568;2023-06-22T10:37:37;4.10;;;2.00;;
6282;SDS011;3174;53.486;9.568;2023-06-22T10:40:05;5.13;;;2.35;;
6282;SDS011;3174;53.486;9.568;2023-06-22T10:42:34;3.25;;;1.90;;
6282;SDS011;3174;53.486;9.568;2023-06-22T10:45:02;3.13;;;2.25;;
6282;SDS011;3174;53.486;9.568;2023-06-22T10:47:31;4.20;;;2.10;;
6282;SDS011;3174;53.486;9.568;2023-06-22T10:50:00;2.55;;;2.13;;
6282;SDS011;3174;53.486;9.568;2023-06-22T10:52:28;4.07;;;2.38;;
6282;SDS011;3174;53.486;9.568;2023-06-22T10:54:57;4.72;;;2.30;;
6282;SDS011;3174;53.486;9.568;2023-06-22T10:57:25;2.60;;;2.40;;
6282;SDS011;3174;53.486;9.568;2023-06-22T10:59:53;3.70;;;2.50;;
6282;SDS011;3174;53.486;9.568;2023-06-22T11:02:21;2.72;;;2.08;;
6282;SDS011;3174;53.486;9.568;2023-06-22T11:04:49;2.95;;;2.42;;
6282;SDS011;3174;53.486;9.568;2023-06-22T11:07:19;2.85;;;2.30;;
6282;SDS011;3174;53.486;9.568;2023-06-22T11:09:47;3.50;;;2.22;;
6282;SDS011;3174;53.486;9.568;2023-06-22T11:12:15;2.38;;;2.13;;
6282;SDS011;3174;53.486;9.568;2023-06-22T11:14:43;2.83;;;2.17;;
6282;SDS011;3174;53.486;9.568;2023-06-22T11:17:11;2.90;;;2.35;;
6282;SDS011;3174;53.486;9.568;2023-06-22T11:19:39;3.78;;;2.58;;
6282;SDS011;3174;53.486;9.568;2023-06-22T11:22:07;3.20;;;2.42;;
6282;SDS011;3174;53.486;9.568;2023-06-22T11:24:36;3.55;;;2.20;;
6282;SDS011;3174;53.486;9.568;2023-06-22T11:27:05;2.70;;;2.17;;
6282;SDS011;3174;53.486;9.568;2023-06-22T11:29:33;4.65;;;2.72;;
6282;SDS011;3174;53.486;9.568;2023-06-22T11:32:04;3.90;;;2.67;;
6282;SDS011;3174;53.486;9.568;2023-06-22T11:34:35;3.85;;;2.53;;
6282;SDS011;3174;53.486;9.568;2023-06-22T11:37:03;3.40;;;2.22;;
6282;SDS011;3174;53.486;9.568;2023-06-22T11:39:31;3.05;;;2.40;;
6282;SDS011;3174;53.486;9.568;2023-06-22T11:42:14;4.50;;;2.75;;
6282;SDS011;3174;53.486;9.568;2023-06-22T11:44:42;4.15;;;2.53;;
6282;SDS011;3174;53.486;9.568;2023-06-22T11:47:10;3.05;;;2.50;;
6282;SDS011;3174;53.486;9.568;2023-06-22T11:49:38;3.90;;;3.17;;
6282;SDS011;3174;53.486;9.568;2023-06-22T11:52:07;4.32;;;2.63;;
6282;SDS011;3174;53.486;9.568;2023-06-22T11:54:35;4.53;;;2.60;;
6282;SDS011;3174;53.486;9.568;2023-06-22T11:57:04;3.75;;;2.80;;
6282;SDS011;3174;53.486;9.568;2023-06-22T11:59:33;2.40;;;2.20;;
6282;SDS011;3174;53.486;9.568;2023-06-22T12:02:01;3.88;;;2.67;;
6282;SDS011;3174;53.486;9.568;2023-06-22T12:04:31;2.90;;;2.60;;
6282;SDS011;3174;53.486;9.568;2023-06-22T12:06:59;2.83;;;2.25;;
6282;SDS011;3174;53.486;9.568;2023-06-22T12:09:28;4.35;;;2.90;;
6282;SDS011;3174;53.486;9.568;2023-06-22T12:11:56;3.97;;;2.65;;
6282;SDS011;3174;53.486;9.568;2023-06-22T12:14:24;4.93;;;3.00;;
6282;SDS011;3174;53.486;9.568;2023-06-22T12:16:55;3.95;;;3.20;;
6282;SDS011;3174;53.486;9.568;2023-06-22T12:19:23;3.42;;;2.50;;
6282;SDS011;3174;53.486;9.568;2023-06-22T12:21:51;4.80;;;2.70;;
6282;SDS011;3174;53.486;9.568;2023-06-22T12:24:19;2.80;;;2.55;;
6282;SDS011;3174;53.486;9.568;2023-06-22T12:26:47;2.83;;;2.55;;
6282;SDS011;3174;53.486;9.568;2023-06-22T12:29:15;3.50;;;2.88;;
6282;SDS011;3174;53.486;9.568;2023-06-22T12:31:43;3.45;;;2.70;;
6282;SDS011;3174;53.486;9.568;2023-06-22T12:34:13;3.63;;;2.55;;
6282;SDS011;3174;53.486;9.568;2023-06-22T12:36:41;3.15;;;2.67;;
6282;SDS011;3174;53.486;9.568;2023-06-22T12:39:09;2.95;;;2.55;;
6282;SDS011;3174;53.486;9.568;2023-06-22T12:41:37;3.00;;;2.70;;
6282;SDS011;3174;53.486;9.568;2023-06-22T12:44:05;4.18;;;3.15;;
6282;SDS011;3174;53.486;9.568;2023-06-22T12:46:33;4.80;;;3.10;;
6282;SDS011;3174;53.486;9.568;2023-06-22T12:49:04;3.40;;;3.10;;
6282;SDS011;3174;53.486;9.568;2023-06-22T12:51:33;3.88;;;3.10;;
6282;SDS011;3174;53.486;9.568;2023-06-22T12:54:07;4.65;;;3.88;;
6282;SDS011;3174;53.486;9.568;2023-06-22T12:56:35;3.00;;;2.63;;
6282;SDS011;3174;53.486;9.568;2023-06-22T12:59:04;4.00;;;3.60;;
6282;SDS011;3174;53.486;9.568;2023-06-22T13:01:32;3.67;;;3.05;;
6282;SDS011;3174;53.486;9.568;2023-06-22T13:04:00;4.47;;;3.40;;
6282;SDS011;3174;53.486;9.568;2023-06-22T13:06:28;3.10;;;2.80;;
6282;SDS011;3174;53.486;9.568;2023-06-22T13:08:57;3.22;;;2.92;;
6282;SDS011;3174;53.486;9.568;2023-06-22T13:11:28;4.53;;;3.30;;
6282;SDS011;3174;53.486;9.568;2023-06-22T13:13:56;5.53;;;3.20;;
6282;SDS011;3174;53.486;9.568;2023-06-22T13:16:24;7.22;;;3.05;;
6282;SDS011;3174;53.486;9.568;2023-06-22T13:18:52;3.55;;;3.17;;
6282;SDS011;3174;53.486;9.568;2023-06-22T13:21:20;4.45;;;4.00;;
6282;SDS011;3174;53.486;9.568;2023-06-22T13:23:48;4.05;;;3.10;;
6282;SDS011;3174;53.486;9.568;2023-06-22T13:26:18;3.70;;;3.40;;
6282;SDS011;3174;53.486;9.568;2023-06-22T13:28:46;3.47;;;3.10;;
6282;SDS011;3174;53.486;9.568;2023-06-22T13:31:14;4.18;;;3.25;;
6282;SDS011;3174;53.486;9.568;2023-06-22T13:33:42;3.50;;;3.20;;
6282;SDS011;3174;53.486;9.568;2023-06-22T13:36:12;4.63;;;3.30;;
6282;SDS011;3174;53.486;9.568;2023-06-22T13:38:39;5.93;;;3.53;;
6282;SDS011;3174;53.486;9.568;2023-06-22T13:41:07;5.35;;;3.53;;
6282;SDS011;3174;53.486;9.568;2023-06-22T13:43:37;4.55;;;3.53;;
6282;SDS011;3174;53.486;9.568;2023-06-22T13:46:05;4.00;;;3.17;;
6282;SDS011;3174;53.486;9.568;2023-06-22T13:48:33;4.78;;;3.90;;
6282;SDS011;3174;53.486;9.568;2023-06-22T13:51:01;4.50;;;3.97;;
6282;SDS011;3174;53.486;9.568;2023-06-22T13:53:29;4.40;;;4.00;;
6282;SDS011;3174;53.486;9.568;2023-06-22T13:55:57;4.38;;;3.63;;
6282;SDS011;3174;53.486;9.568;2023-06-22T13:58:25;5.30;;;3.60;;
6282;SDS011;3174;53.486;9.568;2023-06-22T14:00:54;4.35;;;3.90;;
6282;SDS011;3174;53.486;9.568;2023-06-22T14:03:22;5.03;;;3.92;;
6282;SDS011;3174;53.486;9.568;2023-06-22T14:05:50;4.68;;;3.90;;
6282;SDS011;3174;53.486;9.568;2023-06-22T14:08:20;5.00;;;3.85;;
6282;SDS011;3174;53.486;9.568;2023-06-22T14:10:52;4.40;;;3.45;;
6282;SDS011;3174;53.486;9.568;2023-06-22T14:13:21;5.07;;;3.45;;
6282;SDS011;3174;53.486;9.568;2023-06-22T14:15:49;4.15;;;3.70;;
6282;SDS011;3174;53.486;9.568;2023-06-22T14:18:20;4.93;;;4.43;;
6282;SDS011;3174;53.486;9.568;2023-06-22T14:20:48;7.22;;;5.93;;
6282;SDS011;3174;53.486;9.568;2023-06-22T14:23:16;13.23;;;11.27;;
6282;SDS011;3174;53.486;9.568;2023-06-22T14:25:44;5.63;;;4.97;;
6282;SDS011;3174;53.486;9.568;2023-06-22T14:28:12;9.75;;;8.35;;
6282;SDS011;3174;53.486;9.568;2023-06-22T14:30:40;9.10;;;7.38;;
6282;SDS011;3174;53.486;9.568;2023-06-22T14:33:08;7.20;;;6.50;;
6282;SDS011;3174;53.486;9.568;2023-06-22T14:35:38;7.22;;;6.47;;
6282;SDS011;3174;53.486;9.568;2023-06-22T14:38:06;8.05;;;7.00;;
6282;SDS011;3174;53.486;9.568;2023-06-22T14:40:34;6.55;;;5.85;;
6282;SDS011;3174;53.486;9.568;2023-06-22T14:43:22;7.07;;;6.38;;
6282;SDS011;3174;53.486;9.568;2023-06-22T14:45:51;6.43;;;5.78;;
6282;SDS011;3174;53.486;9.568;2023-06-22T14:48:19;7.65;;;5.85;;
6282;SDS011;3174;53.486;9.568;2023-06-22T14:50:49;8.23;;;5.60;;
6282;SDS011;3174;53.486;9.568;2023-06-22T14:53:17;5.70;;;4.82;;
6282;SDS011;3174;53.486;9.568;2023-06-22T14:55:45;8.60;;;5.38;;
6282;SDS011;3174;53.486;9.568;2023-06-22T14:58:13;6.00;;;4.70;;
6282;SDS011;3174;53.486;9.568;2023-06-22T15:00:41;6.10;;;5.10;;
6282;SDS011;3174;53.486;9.568;2023-06-22T15:03:09;6.60;;;4.50;;
6282;SDS011;3174;53.486;9.568;2023-06-22T15:05:45;4.78;;;4.38;;
6282;SDS011;3174;53.486;9.568;2023-06-22T15:08:14;4.60;;;4.20;;
6282;SDS011;3174;53.486;9.568;2023-06-22T15:10:42;6.45;;;4.90;;
6282;SDS011;3174;53.486;9.568;2023-06-22T15:13:10;4.88;;;4.47;;
6282;SDS011;3174;53.486;9.568;2023-06-22T15:15:39;4.82;;;4.30;;
6282;SDS011;3174;53.486;9.568;2023-06-22T15:18:07;6.15;;;5.07;;
6282;SDS011;3174;53.486;9.568;2023-06-22T15:20:35;5.15;;;4.65;;
6282;SDS011;3174;53.486;9.568;2023-06-22T15:23:03;8.55;;;5.32;;
6282;SDS011;3174;53.486;9.568;2023-06-22T15:25:32;6.97;;;5.00;;